sensor_id;sensor_type;location;lat;lon;timestamp;P1;durP1;ratioP1;P2;durP2;ratioP2
69253;SDS011;56364;41.816;12.448;2023-02-26T00:01:13;8.50;;;3.38;;
69253;SDS011;56364;41.816;12.448;2023-02-26T00:19:45;10.60;;;3.45;;
69253;SDS011;56364;41.816;12.448;2023-02-26T00:22:13;13.25;;;3.67;;
69253;SDS011;56364;41.816;12.448;2023-02-26T00:24:39;10.20;;;3.17;;
69253;SDS011;56364;41.816;12.448;2023-02-26T00:27:08;9.32;;;2.88;;
69253;SDS011;56364;41.816;12.448;2023-02-26T00:29:35;11.38;;;3.78;;
69253;SDS011;56364;41.816;12.448;2023-02-26T00:32:11;12.82;;;3.60;;
69253;SDS011;56364;41.816;12.448;2023-02-26T00:34:37;13.60;;;4.05;;
69253;SDS011;56364;41.816;12.448;2023-02-26T00:39:40;11.27;;;3.63;;
69253;SDS011;56364;41.816;12.448;2023-02-26T00:42:09;15.27;;;4.35;;
69253;SDS011;56364;41.816;12.448;2023-02-26T00:44:35;8.32;;;3.08;;
69253;SDS011;56364;41.816;12.448;2023-02-26T00:52:25;12.35;;;4.35;;
69253;SDS011;56364;41.816;12.448;2023-02-26T00:55:04;15.93;;;4.10;;
69253;SDS011;56364;41.816;12.448;2023-02-26T00:57:30;15.40;;;3.75;;
69253;SDS011;56364;41.816;12.448;2023-02-26T00:59:58;9.70;;;3.17;;
69253;SDS011;56364;41.816;12.448;2023-02-26T01:02:28;14.13;;;3.83;;
69253;SDS011;56364;41.816;12.448;2023-02-26T01:04:55;16.15;;;3.63;;
69253;SDS011;56364;41.816;12.448;2023-02-26T01:07:22;13.85;;;3.90;;
69253;SDS011;56364;41.816;12.448;2023-02-26T01:28:07;9.20;;;2.60;;
69253;SDS011;56364;41.816;12.448;2023-02-26T01:30:33;7.10;;;3.10;;
69253;SDS011;56364;41.816;12.448;2023-02-26T01:36:19;7.75;;;2.47;;
69253;SDS011;56364;41.816;12.448;2023-02-26T01:39:04;11.82;;;2.55;;
69253;SDS011;56364;41.816;12.448;2023-02-26T01:41:42;14.57;;;3.58;;
69253;SDS011;56364;41.816;12.448;2023-02-26T01:44:21;11.60;;;2.95;;
69253;SDS011;56364;41.816;12.448;2023-02-26T01:49:38;9.32;;;2.72;;
69253;SDS011;56364;41.816;12.448;2023-02-26T01:54:59;8.57;;;2.83;;
69253;SDS011;56364;41.816;12.448;2023-02-26T01:57:27;10.20;;;2.90;;
69253;SDS011;56364;41.816;12.448;2023-02-26T01:59:53;9.68;;;3.05;;
69253;SDS011;56364;41.816;12.448;2023-02-26T02:02:23;11.15;;;2.85;;
69253;SDS011;56364;41.816;12.448;2023-02-26T02:04:50;12.07;;;2.88;;
69253;SDS011;56364;41.816;12.448;2023-02-26T02:07:17;7.95;;;2.88;;
69253;SDS011;56364;41.816;12.448;2023-02-26T02:09:43;7.57;;;2.20;;
69253;SDS011;56364;41.816;12.448;2023-02-26T02:15:13;9.95;;;2.40;;
69253;SDS011;56364;41.816;12.448;2023-02-26T02:33:20;11.18;;;2.80;;
69253;SDS011;56364;41.816;12.448;2023-02-26T02:38:53;8.75;;;2.70;;
69253;SDS011;56364;41.816;12.448;2023-02-26T02:41:23;12.18;;;2.67;;
69253;SDS011;56364;41.816;12.448;2023-02-26T02:44:09;11.35;;;2.72;;
69253;SDS011;56364;41.816;12.448;2023-02-26T02:46:37;6.43;;;2.13;;
69253;SDS011;56364;41.816;12.448;2023-02-26T02:49:09;10.45;;;2.38;;
69253;SDS011;56364;41.816;12.448;2023-02-26T02:51:36;7.70;;;2.63;;
69253;SDS011;56364;41.816;12.448;2023-02-26T02:54:11;9.40;;;2.50;;
69253;SDS011;56364;41.816;12.448;2023-02-26T02:56:46;7.75;;;2.13;;
69253;SDS011;56364;41.816;12.448;2023-02-26T03:01:45;16.42;;;3.30;;
69253;SDS011;56364;41.816;12.448;2023-02-26T03:04:14;11.13;;;2.58;;
69253;SDS011;56364;41.816;12.448;2023-02-26T03:06:41;10.32;;;2.47;;
69253;SDS011;56364;41.816;12.448;2023-02-26T03:11:33;7.20;;;2.28;;
69253;SDS011;56364;41.816;12.448;2023-02-26T03:14:01;10.65;;;2.58;;
69253;SDS011;56364;41.816;12.448;2023-02-26T03:21:51;7.30;;;2.72;;
69253;SDS011;56364;41.816;12.448;2023-02-26T03:24:34;14.30;;;2.33;;
69253;SDS011;56364;41.816;12.448;2023-02-26T03:29:51;10.48;;;2.53;;
69253;SDS011;56364;41.816;12.448;2023-02-26T03:32:27;12.75;;;2.78;;
69253;SDS011;56364;41.816;12.448;2023-02-26T03:37:49;8.55;;;2.53;;
69253;SDS011;56364;41.816;12.448;2023-02-26T03:40:24;11.63;;;2.60;;
69253;SDS011;56364;41.816;12.448;2023-02-26T03:45:50;6.22;;;2.00;;
69253;SDS011;56364;41.816;12.448;2023-02-26T03:48:19;5.43;;;1.80;;
69253;SDS011;56364;41.816;12.448;2023-02-26T03:50:48;16.23;;;2.92;;
69253;SDS011;56364;41.816;12.448;2023-02-26T03:53:16;7.95;;;2.20;;
69253;SDS011;56364;41.816;12.448;2023-02-26T03:58:22;11.00;;;2.60;;
69253;SDS011;56364;41.816;12.448;2023-02-26T04:06:02;5.22;;;1.73;;
69253;SDS011;56364;41.816;12.448;2023-02-26T04:08:28;11.57;;;2.40;;
69253;SDS011;56364;41.816;12.448;2023-02-26T04:11:05;11.98;;;2.40;;
69253;SDS011;56364;41.816;12.448;2023-02-26T04:13:35;8.52;;;2.20;;
69253;SDS011;56364;41.816;12.448;2023-02-26T04:16:03;8.13;;;2.38;;
69253;SDS011;56364;41.816;12.448;2023-02-26T04:20:55;8.63;;;2.38;;
69253;SDS011;56364;41.816;12.448;2023-02-26T04:23:24;4.45;;;1.73;;
69253;SDS011;56364;41.816;12.448;2023-02-26T04:28:26;13.50;;;2.10;;
69253;SDS011;56364;41.816;12.448;2023-02-26T04:30:54;10.77;;;2.72;;
69253;SDS011;56364;41.816;12.448;2023-02-26T04:33:20;9.13;;;2.33;;
69253;SDS011;56364;41.816;12.448;2023-02-26T04:35:47;8.82;;;2.17;;
69253;SDS011;56364;41.816;12.448;2023-02-26T04:38:13;8.43;;;2.30;;
69253;SDS011;56364;41.816;12.448;2023-02-26T04:40:39;9.15;;;2.22;;
69253;SDS011;56364;41.816;12.448;2023-02-26T04:43:06;6.32;;;1.92;;
69253;SDS011;56364;41.816;12.448;2023-02-26T04:45:32;15.95;;;2.47;;
69253;SDS011;56364;41.816;12.448;2023-02-26T04:47:58;11.60;;;2.00;;
69253;SDS011;56364;41.816;12.448;2023-02-26T04:50:24;14.23;;;2.28;;
69253;SDS011;56364;41.816;12.448;2023-02-26T04:52:50;8.80;;;2.67;;
69253;SDS011;56364;41.816;12.448;2023-02-26T04:55:16;9.77;;;2.00;;
69253;SDS011;56364;41.816;12.448;2023-02-26T04:57:42;11.80;;;2.70;;
69253;SDS011;56364;41.816;12.448;2023-02-26T05:00:09;14.45;;;2.22;;
69253;SDS011;56364;41.816;12.448;2023-02-26T05:02:35;9.73;;;3.08;;
69253;SDS011;56364;41.816;12.448;2023-02-26T05:07:27;7.78;;;1.65;;
69253;SDS011;56364;41.816;12.448;2023-02-26T05:09:53;5.55;;;2.13;;
69253;SDS011;56364;41.816;12.448;2023-02-26T05:12:19;9.18;;;2.05;;
69253;SDS011;56364;41.816;12.448;2023-02-26T05:14:46;10.05;;;2.10;;
69253;SDS011;56364;41.816;12.448;2023-02-26T05:17:12;9.25;;;2.47;;
69253;SDS011;56364;41.816;12.448;2023-02-26T05:19:38;12.70;;;2.22;;
69253;SDS011;56364;41.816;12.448;2023-02-26T05:22:04;13.63;;;2.50;;
69253;SDS011;56364;41.816;12.448;2023-02-26T05:24:30;5.28;;;1.90;;
69253;SDS011;56364;41.816;12.448;2023-02-26T05:26:57;9.27;;;2.58;;
69253;SDS011;56364;41.816;12.448;2023-02-26T05:29:23;12.60;;;3.25;;
69253;SDS011;56364;41.816;12.448;2023-02-26T05:31:49;11.18;;;2.53;;
69253;SDS011;56364;41.816;12.448;2023-02-26T05:34:17;12.65;;;2.15;;
69253;SDS011;56364;41.816;12.448;2023-02-26T05:36:43;10.18;;;2.33;;
69253;SDS011;56364;41.816;12.448;2023-02-26T05:39:09;10.15;;;2.75;;
69253;SDS011;56364;41.816;12.448;2023-02-26T05:41:36;13.30;;;2.70;;
69253;SDS011;56364;41.816;12.448;2023-02-26T05:44:02;12.93;;;2.47;;
69253;SDS011;56364;41.816;12.448;2023-02-26T05:46:29;9.52;;;2.10;;
69253;SDS011;56364;41.816;12.448;2023-02-26T05:48:55;7.22;;;2.42;;
69253;SDS011;56364;41.816;12.448;2023-02-26T05:51:21;13.13;;;2.67;;
69253;SDS011;56364;41.816;12.448;2023-02-26T05:53:48;15.48;;;2.50;;
69253;SDS011;56364;41.816;12.448;2023-02-26T05:56:14;10.13;;;2.50;;
69253;SDS011;56364;41.816;12.448;2023-02-26T05:58:40;13.48;;;2.33;;
69253;SDS011;56364;41.816;12.448;2023-02-26T06:01:08;12.02;;;3.00;;
69253;SDS011;56364;41.816;12.448;2023-02-26T06:03:35;14.43;;;2.78;;
69253;SDS011;56364;41.816;12.448;2023-02-26T06:06:01;17.75;;;3.30;;
69253;SDS011;56364;41.816;12.448;2023-02-26T06:08:28;11.50;;;2.67;;
69253;SDS011;56364;41.816;12.448;2023-02-26T06:10:54;15.18;;;2.97;;
69253;SDS011;56364;41.816;12.448;2023-02-26T06:13:20;11.25;;;2.88;;
69253;SDS011;56364;41.816;12.448;2023-02-26T06:15:48;17.00;;;3.05;;
69253;SDS011;56364;41.816;12.448;2023-02-26T06:18:16;9.43;;;2.53;;
69253;SDS011;56364;41.816;12.448;2023-02-26T06:23:08;9.25;;;2.42;;
69253;SDS011;56364;41.816;12.448;2023-02-26T06:25:34;6.25;;;2.17;;
69253;SDS011;56364;41.816;12.448;2023-02-26T06:28:00;8.60;;;2.78;;
69253;SDS011;56364;41.816;12.448;2023-02-26T06:30:27;10.10;;;2.38;;
69253;SDS011;56364;41.816;12.448;2023-02-26T06:32:53;8.90;;;2.20;;
69253;SDS011;56364;41.816;12.448;2023-02-26T06:35:19;8.52;;;2.75;;
69253;SDS011;56364;41.816;12.448;2023-02-26T06:37:45;8.88;;;2.45;;
69253;SDS011;56364;41.816;12.448;2023-02-26T06:40:11;15.30;;;2.75;;
69253;SDS011;56364;41.816;12.448;2023-02-26T06:42:37;10.40;;;3.72;;
69253;SDS011;56364;41.816;12.448;2023-02-26T06:45:03;16.52;;;3.33;;
69253;SDS011;56364;41.816;12.448;2023-02-26T06:47:30;6.32;;;2.50;;
69253;SDS011;56364;41.816;12.448;2023-02-26T06:49:56;11.98;;;2.83;;
69253;SDS011;56364;41.816;12.448;2023-02-26T06:52:22;9.00;;;2.35;;
69253;SDS011;56364;41.816;12.448;2023-02-26T06:54:49;6.32;;;2.20;;
69253;SDS011;56364;41.816;12.448;2023-02-26T06:57:15;9.02;;;2.42;;
69253;SDS011;56364;41.816;12.448;2023-02-26T06:59:41;6.30;;;1.83;;
69253;SDS011;56364;41.816;12.448;2023-02-26T07:02:21;8.18;;;2.28;;
69253;SDS011;56364;41.816;12.448;2023-02-26T07:04:48;7.80;;;2.33;;
69253;SDS011;56364;41.816;12.448;2023-02-26T07:07:14;10.80;;;2.92;;
69253;SDS011;56364;41.816;12.448;2023-02-26T07:09:40;9.15;;;2.70;;
69253;SDS011;56364;41.816;12.448;2023-02-26T07:12:06;11.70;;;2.78;;
69253;SDS011;56364;41.816;12.448;2023-02-26T07:14:33;11.02;;;2.58;;
69253;SDS011;56364;41.816;12.448;2023-02-26T07:17:02;7.60;;;2.65;;
69253;SDS011;56364;41.816;12.448;2023-02-26T07:19:31;9.07;;;2.53;;
69253;SDS011;56364;41.816;12.448;2023-02-26T07:58:17;5.13;;;0.85;;
69253;SDS011;56364;41.816;12.448;2023-02-26T08:00:44;2.00;;;0.52;;
69253;SDS011;56364;41.816;12.448;2023-02-26T08:03:10;8.73;;;0.77;;
69253;SDS011;56364;41.816;12.448;2023-02-26T08:05:36;0.73;;;0.45;;
69253;SDS011;56364;41.816;12.448;2023-02-26T08:08:02;2.53;;;0.57;;
69253;SDS011;56364;41.816;12.448;2023-02-26T08:10:28;5.13;;;0.70;;
69253;SDS011;56364;41.816;12.448;2023-02-26T08:12:54;2.80;;;0.45;;
69253;SDS011;56364;41.816;12.448;2023-02-26T08:15:20;6.28;;;0.70;;
69253;SDS011;56364;41.816;12.448;2023-02-26T08:17:46;5.97;;;1.20;;
69253;SDS011;56364;41.816;12.448;2023-02-26T08:20:16;0.70;;;0.30;;
69253;SDS011;56364;41.816;12.448;2023-02-26T08:22:42;1.98;;;0.70;;
69253;SDS011;56364;41.816;12.448;2023-02-26T08:25:08;3.03;;;0.70;;
69253;SDS011;56364;41.816;12.448;2023-02-26T08:27:34;1.45;;;0.57;;
69253;SDS011;56364;41.816;12.448;2023-02-26T08:30:01;8.15;;;0.60;;
69253;SDS011;56364;41.816;12.448;2023-02-26T08:32:27;2.25;;;0.40;;
69253;SDS011;56364;41.816;12.448;2023-02-26T08:34:53;4.35;;;0.82;;
69253;SDS011;56364;41.816;12.448;2023-02-26T08:37:22;2.08;;;0.50;;
69253;SDS011;56364;41.816;12.448;2023-02-26T08:39:50;2.13;;;0.50;;
69253;SDS011;56364;41.816;12.448;2023-02-26T08:42:16;6.10;;;0.65;;
69253;SDS011;56364;41.816;12.448;2023-02-26T08:44:44;3.13;;;0.50;;
69253;SDS011;56364;41.816;12.448;2023-02-26T08:49:36;3.42;;;0.60;;
69253;SDS011;56364;41.816;12.448;2023-02-26T08:52:02;7.82;;;0.50;;
69253;SDS011;56364;41.816;12.448;2023-02-26T08:56:54;4.32;;;0.90;;
69253;SDS011;56364;41.816;12.448;2023-02-26T08:59:22;3.63;;;0.90;;
69253;SDS011;56364;41.816;12.448;2023-02-26T09:01:48;0.60;;;0.30;;
69253;SDS011;56364;41.816;12.448;2023-02-26T09:04:14;0.22;;;0.15;;
69253;SDS011;56364;41.816;12.448;2023-02-26T09:06:40;4.88;;;0.47;;
69253;SDS011;56364;41.816;12.448;2023-02-26T09:09:06;2.42;;;0.50;;
69253;SDS011;56364;41.816;12.448;2023-02-26T09:11:32;1.27;;;0.50;;
69253;SDS011;56364;41.816;12.448;2023-02-26T09:14:00;7.63;;;1.02;;
69253;SDS011;56364;41.816;12.448;2023-02-26T09:16:27;5.32;;;1.15;;
69253;SDS011;56364;41.816;12.448;2023-02-26T09:18:54;6.00;;;0.85;;
69253;SDS011;56364;41.816;12.448;2023-02-26T09:23:46;4.88;;;0.57;;
69253;SDS011;56364;41.816;12.448;2023-02-26T09:26:12;4.18;;;1.17;;
69253;SDS011;56364;41.816;12.448;2023-02-26T09:28:38;7.43;;;0.77;;
69253;SDS011;56364;41.816;12.448;2023-02-26T09:31:04;2.67;;;0.85;;
69253;SDS011;56364;41.816;12.448;2023-02-26T09:33:33;5.90;;;1.13;;
69253;SDS011;56364;41.816;12.448;2023-02-26T09:36:00;3.22;;;0.88;;
69253;SDS011;56364;41.816;12.448;2023-02-26T09:40:57;10.18;;;1.00;;
69253;SDS011;56364;41.816;12.448;2023-02-26T09:46:20;1.48;;;0.55;;
69253;SDS011;56364;41.816;12.448;2023-02-26T09:48:49;3.90;;;0.98;;
69253;SDS011;56364;41.816;12.448;2023-02-26T09:51:17;7.60;;;0.93;;
69253;SDS011;56364;41.816;12.448;2023-02-26T09:53:45;8.02;;;1.00;;
69253;SDS011;56364;41.816;12.448;2023-02-26T09:56:15;1.70;;;0.60;;
69253;SDS011;56364;41.816;12.448;2023-02-26T09:58:42;7.78;;;1.40;;
69253;SDS011;56364;41.816;12.448;2023-02-26T10:04:02;6.32;;;0.73;;
69253;SDS011;56364;41.816;12.448;2023-02-26T10:06:25;11.45;;;1.17;;
69253;SDS011;56364;41.816;12.448;2023-02-26T10:11:24;3.22;;;0.93;;
69253;SDS011;56364;41.816;12.448;2023-02-26T10:13:58;1.55;;;0.73;;
69253;SDS011;56364;41.816;12.448;2023-02-26T10:16:28;2.42;;;1.00;;
69253;SDS011;56364;41.816;12.448;2023-02-26T10:19:03;8.35;;;1.20;;
69253;SDS011;56364;41.816;12.448;2023-02-26T10:21:47;5.32;;;0.98;;
69253;SDS011;56364;41.816;12.448;2023-02-26T10:24:20;5.50;;;1.70;;
69253;SDS011;56364;41.816;12.448;2023-02-26T10:26:53;8.98;;;1.05;;
69253;SDS011;56364;41.816;12.448;2023-02-26T10:36:52;7.63;;;1.48;;
69253;SDS011;56364;41.816;12.448;2023-02-26T10:39:27;3.28;;;0.70;;
69253;SDS011;56364;41.816;12.448;2023-02-26T10:41:54;5.88;;;0.93;;
69253;SDS011;56364;41.816;12.448;2023-02-26T10:50:04;4.10;;;1.40;;
69253;SDS011;56364;41.816;12.448;2023-02-26T10:52:31;7.00;;;1.10;;
69253;SDS011;56364;41.816;12.448;2023-02-26T10:57:36;2.25;;;0.63;;
69253;SDS011;56364;41.816;12.448;2023-02-26T11:00:04;3.20;;;0.82;;
69253;SDS011;56364;41.816;12.448;2023-02-26T11:02:39;7.40;;;1.58;;
69253;SDS011;56364;41.816;12.448;2023-02-26T11:05:30;4.55;;;1.35;;
69253;SDS011;56364;41.816;12.448;2023-02-26T11:07:58;3.58;;;0.88;;
69253;SDS011;56364;41.816;12.448;2023-02-26T11:10:39;2.53;;;0.70;;
69253;SDS011;56364;41.816;12.448;2023-02-26T11:13:05;12.48;;;1.05;;
69253;SDS011;56364;41.816;12.448;2023-02-26T11:17:58;2.10;;;0.55;;
69253;SDS011;56364;41.816;12.448;2023-02-26T11:20:33;1.50;;;0.57;;
69253;SDS011;56364;41.816;12.448;2023-02-26T11:23:00;8.57;;;0.90;;
69253;SDS011;56364;41.816;12.448;2023-02-26T11:25:29;7.43;;;0.90;;
69253;SDS011;56364;41.816;12.448;2023-02-26T11:27:58;8.60;;;1.25;;
69253;SDS011;56364;41.816;12.448;2023-02-26T11:30:25;5.63;;;0.93;;
69253;SDS011;56364;41.816;12.448;2023-02-26T11:32:52;9.60;;;1.05;;
69253;SDS011;56364;41.816;12.448;2023-02-26T11:38:28;6.07;;;0.63;;
69253;SDS011;56364;41.816;12.448;2023-02-26T11:41:04;2.63;;;0.80;;
69253;SDS011;56364;41.816;12.448;2023-02-26T11:43:55;1.27;;;0.32;;
69253;SDS011;56364;41.816;12.448;2023-02-26T11:46:22;12.43;;;1.48;;
69253;SDS011;56364;41.816;12.448;2023-02-26T11:48:48;4.28;;;0.65;;
69253;SDS011;56364;41.816;12.448;2023-02-26T11:51:19;7.55;;;1.45;;
69253;SDS011;56364;41.816;12.448;2023-02-26T11:53:58;4.30;;;0.82;;
69253;SDS011;56364;41.816;12.448;2023-02-26T11:56:34;6.03;;;0.47;;
69253;SDS011;56364;41.816;12.448;2023-02-26T11:59:12;1.73;;;0.40;;
69253;SDS011;56364;41.816;12.448;2023-02-26T12:01:41;8.77;;;1.05;;
69253;SDS011;56364;41.816;12.448;2023-02-26T12:04:17;4.57;;;0.90;;
69253;SDS011;56364;41.816;12.448;2023-02-26T12:06:50;7.45;;;1.08;;
69253;SDS011;56364;41.816;12.448;2023-02-26T12:09:17;5.35;;;1.00;;
69253;SDS011;56364;41.816;12.448;2023-02-26T12:14:43;6.35;;;1.00;;
69253;SDS011;56364;41.816;12.448;2023-02-26T12:19:56;11.80;;;1.00;;
69253;SDS011;56364;41.816;12.448;2023-02-26T12:33:15;0.75;;;0.47;;
69253;SDS011;56364;41.816;12.448;2023-02-26T12:38:23;7.65;;;0.70;;
69253;SDS011;56364;41.816;12.448;2023-02-26T12:53:43;8.27;;;0.80;;
69253;SDS011;56364;41.816;12.448;2023-02-26T13:10:08;1.27;;;0.52;;
69253;SDS011;56364;41.816;12.448;2023-02-26T13:20:58;2.30;;;0.55;;
69253;SDS011;56364;41.816;12.448;2023-02-26T13:23:28;3.05;;;0.73;;
69253;SDS011;56364;41.816;12.448;2023-02-26T13:31:17;3.63;;;0.60;;
69253;SDS011;56364;41.816;12.448;2023-02-26T13:33:49;3.70;;;1.00;;
69253;SDS011;56364;41.816;12.448;2023-02-26T13:36:18;1.85;;;0.63;;
69253;SDS011;56364;41.816;12.448;2023-02-26T13:50:20;4.22;;;0.52;;
69253;SDS011;56364;41.816;12.448;2023-02-26T13:53:02;3.42;;;0.50;;
69253;SDS011;56364;41.816;12.448;2023-02-26T14:00:37;2.22;;;0.52;;
69253;SDS011;56364;41.816;12.448;2023-02-26T14:05:53;5.40;;;0.43;;
69253;SDS011;56364;41.816;12.448;2023-02-26T14:11:04;2.17;;;0.50;;
69253;SDS011;56364;41.816;12.448;2023-02-26T14:13:37;6.93;;;0.75;;
69253;SDS011;56364;41.816;12.448;2023-02-26T14:23:49;4.15;;;0.65;;
69253;SDS011;56364;41.816;12.448;2023-02-26T14:26:17;5.53;;;0.75;;
69253;SDS011;56364;41.816;12.448;2023-02-26T14:34:29;2.65;;;0.50;;
69253;SDS011;56364;41.816;12.448;2023-02-26T14:37:00;0.98;;;0.35;;
69253;SDS011;56364;41.816;12.448;2023-02-26T14:42:19;3.30;;;0.40;;
69253;SDS011;56364;41.816;12.448;2023-02-26T14:44:50;6.95;;;0.30;;
69253;SDS011;56364;41.816;12.448;2023-02-26T14:47:17;2.30;;;0.90;;
69253;SDS011;56364;41.816;12.448;2023-02-26T14:49:46;6.85;;;0.60;;
69253;SDS011;56364;41.816;12.448;2023-02-26T15:05:43;2.78;;;0.40;;
69253;SDS011;56364;41.816;12.448;2023-02-26T15:14:14;1.63;;;0.25;;
69253;SDS011;56364;41.816;12.448;2023-02-26T15:22:13;2.42;;;0.50;;
69253;SDS011;56364;41.816;12.448;2023-02-26T15:24:43;3.80;;;0.52;;
69253;SDS011;56364;41.816;12.448;2023-02-26T15:29:40;4.22;;;0.82;;
69253;SDS011;56364;41.816;12.448;2023-02-26T15:34:33;3.40;;;0.40;;
69253;SDS011;56364;41.816;12.448;2023-02-26T15:36:59;1.15;;;0.30;;
69253;SDS011;56364;41.816;12.448;2023-02-26T15:39:26;2.35;;;0.32;;
69253;SDS011;56364;41.816;12.448;2023-02-26T15:41:53;2.63;;;0.40;;
69253;SDS011;56364;41.816;12.448;2023-02-26T15:44:27;1.70;;;0.45;;
69253;SDS011;56364;41.816;12.448;2023-02-26T15:47:01;1.42;;;0.52;;
69253;SDS011;56364;41.816;12.448;2023-02-26T15:52:22;6.50;;;0.60;;
69253;SDS011;56364;41.816;12.448;2023-02-26T15:55:01;2.63;;;0.40;;
69253;SDS011;56364;41.816;12.448;2023-02-26T15:57:28;1.25;;;0.40;;
69253;SDS011;56364;41.816;12.448;2023-02-26T16:00:11;4.47;;;0.70;;
69253;SDS011;56364;41.816;12.448;2023-02-26T16:02:40;4.30;;;0.45;;
69253;SDS011;56364;41.816;12.448;2023-02-26T16:05:09;4.32;;;0.60;;
69253;SDS011;56364;41.816;12.448;2023-02-26T16:07:37;0.82;;;0.40;;
69253;SDS011;56364;41.816;12.448;2023-02-26T16:10:04;0.90;;;0.55;;
69253;SDS011;56364;41.816;12.448;2023-02-26T16:12:39;7.20;;;0.60;;
69253;SDS011;56364;41.816;12.448;2023-02-26T16:15:18;0.52;;;0.28;;
69253;SDS011;56364;41.816;12.448;2023-02-26T16:17:48;4.05;;;0.75;;
69253;SDS011;56364;41.816;12.448;2023-02-26T16:20:19;2.58;;;0.30;;
69253;SDS011;56364;41.816;12.448;2023-02-26T16:22:57;1.70;;;0.40;;
69253;SDS011;56364;41.816;12.448;2023-02-26T16:28:14;2.75;;;0.20;;
69253;SDS011;56364;41.816;12.448;2023-02-26T16:30:41;3.42;;;0.30;;
69253;SDS011;56364;41.816;12.448;2023-02-26T16:33:10;1.85;;;0.25;;
69253;SDS011;56364;41.816;12.448;2023-02-26T16:35:40;0.80;;;0.32;;
69253;SDS011;56364;41.816;12.448;2023-02-26T16:38:27;0.57;;;0.35;;
69253;SDS011;56364;41.816;12.448;2023-02-26T16:40:59;3.50;;;0.40;;
69253;SDS011;56364;41.816;12.448;2023-02-26T16:46:03;2.83;;;0.85;;
69253;SDS011;56364;41.816;12.448;2023-02-26T16:48:34;5.40;;;0.73;;
69253;SDS011;56364;41.816;12.448;2023-02-26T16:51:04;1.45;;;0.60;;
69253;SDS011;56364;41.816;12.448;2023-02-26T16:53:34;3.45;;;0.75;;
69253;SDS011;56364;41.816;12.448;2023-02-26T16:56:09;2.20;;;0.60;;
69253;SDS011;56364;41.816;12.448;2023-02-26T16:58:40;4.57;;;0.88;;
69253;SDS011;56364;41.816;12.448;2023-02-26T17:01:16;4.63;;;1.00;;
69253;SDS011;56364;41.816;12.448;2023-02-26T17:03:51;9.57;;;0.88;;
69253;SDS011;56364;41.816;12.448;2023-02-26T17:06:22;2.50;;;0.50;;
69253;SDS011;56364;41.816;12.448;2023-02-26T17:11:35;4.63;;;0.80;;
69253;SDS011;56364;41.816;12.448;2023-02-26T17:14:14;0.85;;;0.77;;
69253;SDS011;56364;41.816;12.448;2023-02-26T17:16:46;3.35;;;0.70;;
69253;SDS011;56364;41.816;12.448;2023-02-26T17:19:12;6.63;;;0.77;;
69253;SDS011;56364;41.816;12.448;2023-02-26T17:22:03;6.82;;;1.05;;
69253;SDS011;56364;41.816;12.448;2023-02-26T17:24:30;2.50;;;0.73;;
69253;SDS011;56364;41.816;12.448;2023-02-26T17:26:57;1.40;;;0.60;;
69253;SDS011;56364;41.816;12.448;2023-02-26T17:29:26;7.32;;;1.20;;
69253;SDS011;56364;41.816;12.448;2023-02-26T17:31:54;4.82;;;0.70;;
69253;SDS011;56364;41.816;12.448;2023-02-26T17:34:21;1.77;;;0.88;;
69253;SDS011;56364;41.816;12.448;2023-02-26T17:36:47;3.72;;;0.60;;
69253;SDS011;56364;41.816;12.448;2023-02-26T17:41:43;4.00;;;1.17;;
69253;SDS011;56364;41.816;12.448;2023-02-26T17:44:09;7.22;;;1.27;;
69253;SDS011;56364;41.816;12.448;2023-02-26T17:46:35;7.93;;;0.80;;
69253;SDS011;56364;41.816;12.448;2023-02-26T17:49:01;3.30;;;0.70;;
69253;SDS011;56364;41.816;12.448;2023-02-26T17:51:28;4.63;;;0.98;;
69253;SDS011;56364;41.816;12.448;2023-02-26T17:53:54;3.78;;;1.02;;
69253;SDS011;56364;41.816;12.448;2023-02-26T17:56:25;7.80;;;1.23;;
69253;SDS011;56364;41.816;12.448;2023-02-26T17:58:52;4.90;;;1.35;;
69253;SDS011;56364;41.816;12.448;2023-02-26T18:01:19;8.50;;;1.13;;
69253;SDS011;56364;41.816;12.448;2023-02-26T18:03:47;5.03;;;1.02;;
69253;SDS011;56364;41.816;12.448;2023-02-26T18:06:14;6.80;;;1.40;;
69253;SDS011;56364;41.816;12.448;2023-02-26T18:08:43;6.72;;;1.55;;
69253;SDS011;56364;41.816;12.448;2023-02-26T18:11:10;5.88;;;1.20;;
69253;SDS011;56364;41.816;12.448;2023-02-26T18:13:37;7.78;;;1.48;;
69253;SDS011;56364;41.816;12.448;2023-02-26T18:16:04;6.43;;;1.10;;
69253;SDS011;56364;41.816;12.448;2023-02-26T18:18:30;10.32;;;1.38;;
69253;SDS011;56364;41.816;12.448;2023-02-26T18:20:57;0.63;;;0.50;;
69253;SDS011;56364;41.816;12.448;2023-02-26T18:23:23;4.25;;;0.73;;
69253;SDS011;56364;41.816;12.448;2023-02-26T18:25:50;1.90;;;1.02;;
69253;SDS011;56364;41.816;12.448;2023-02-26T18:30:46;1.40;;;0.40;;
69253;SDS011;56364;41.816;12.448;2023-02-26T18:33:13;2.80;;;0.80;;
69253;SDS011;56364;41.816;12.448;2023-02-26T18:35:41;0.70;;;0.43;;
69253;SDS011;56364;41.816;12.448;2023-02-26T18:38:14;4.80;;;0.90;;
69253;SDS011;56364;41.816;12.448;2023-02-26T18:40:43;3.70;;;1.27;;
69253;SDS011;56364;41.816;12.448;2023-02-26T18:43:10;2.88;;;1.00;;
69253;SDS011;56364;41.816;12.448;2023-02-26T18:45:39;2.05;;;1.08;;
69253;SDS011;56364;41.816;12.448;2023-02-26T18:48:06;4.20;;;0.82;;
69253;SDS011;56364;41.816;12.448;2023-02-26T18:50:34;6.00;;;1.15;;
69253;SDS011;56364;41.816;12.448;2023-02-26T18:53:00;3.42;;;1.02;;
69253;SDS011;56364;41.816;12.448;2023-02-26T18:55:26;5.28;;;1.20;;
69253;SDS011;56364;41.816;12.448;2023-02-26T18:57:52;0.98;;;0.63;;
69253;SDS011;56364;41.816;12.448;2023-02-26T19:00:18;5.47;;;1.23;;
69253;SDS011;56364;41.816;12.448;2023-02-26T19:02:45;4.75;;;1.08;;
69253;SDS011;56364;41.816;12.448;2023-02-26T19:05:13;1.92;;;0.80;;
69253;SDS011;56364;41.816;12.448;2023-02-26T19:07:40;2.75;;;1.10;;
69253;SDS011;56364;41.816;12.448;2023-02-26T19:10:07;2.38;;;1.08;;
69253;SDS011;56364;41.816;12.448;2023-02-26T19:12:35;1.90;;;0.93;;
69253;SDS011;56364;41.816;12.448;2023-02-26T19:17:27;4.85;;;1.17;;
69253;SDS011;56364;41.816;12.448;2023-02-26T19:19:53;8.75;;;1.10;;
69253;SDS011;56364;41.816;12.448;2023-02-26T19:22:19;8.43;;;1.52;;
69253;SDS011;56364;41.816;12.448;2023-02-26T19:24:45;4.78;;;1.20;;
69253;SDS011;56364;41.816;12.448;2023-02-26T19:27:12;3.38;;;1.00;;
69253;SDS011;56364;41.816;12.448;2023-02-26T19:29:39;3.05;;;1.33;;
69253;SDS011;56364;41.816;12.448;2023-02-26T19:32:06;2.95;;;1.23;;
69253;SDS011;56364;41.816;12.448;2023-02-26T19:34:32;5.85;;;1.38;;
69253;SDS011;56364;41.816;12.448;2023-02-26T19:36:59;2.83;;;1.40;;
69253;SDS011;56364;41.816;12.448;2023-02-26T19:39:25;2.92;;;0.85;;
69253;SDS011;56364;41.816;12.448;2023-02-26T19:41:51;6.72;;;1.00;;
69253;SDS011;56364;41.816;12.448;2023-02-26T19:44:18;3.58;;;0.68;;
69253;SDS011;56364;41.816;12.448;2023-02-26T19:46:45;0.47;;;0.32;;
69253;SDS011;56364;41.816;12.448;2023-02-26T19:49:11;1.98;;;0.60;;
69253;SDS011;56364;41.816;12.448;2023-02-26T19:54:03;3.08;;;0.93;;
69253;SDS011;56364;41.816;12.448;2023-02-26T19:56:30;1.63;;;0.80;;
69253;SDS011;56364;41.816;12.448;2023-02-26T19:58:57;4.22;;;1.00;;
69253;SDS011;56364;41.816;12.448;2023-02-26T20:01:23;4.72;;;1.33;;
69253;SDS011;56364;41.816;12.448;2023-02-26T20:03:49;6.60;;;1.63;;
69253;SDS011;56364;41.816;12.448;2023-02-26T20:06:16;1.85;;;0.70;;
69253;SDS011;56364;41.816;12.448;2023-02-26T20:08:42;3.35;;;1.02;;
69253;SDS011;56364;41.816;12.448;2023-02-26T20:11:08;4.80;;;0.80;;
69253;SDS011;56364;41.816;12.448;2023-02-26T20:13:35;3.08;;;1.05;;